Time;durP1;ratioP1;P1;durP2;ratioP2;P2;SDS_P1;SDS_P2;PMS_P1;PMS_P2;Temp;Humidity;BMP_temperature;BMP_pressure;BME280_temperature;BME280_humidity;BME280_pressure;Samples;Min_cycle;Max_cycle;Signal;HPM_P1;HPM_P2
2023/05/22 00:02:05;;;;;;;12.90;8.35;;;17.20;99.90;;;;;;6248689;28;20050;-75
2023/05/22 00:05:10;;;;;;;10.10;7.88;;;17.30;99.90;;;;;;6248490;28;20499;-75
2023/05/22 00:08:12;;;;;;;12.38;8.65;;;17.30;99.90;;;;;;6248456;28;20406;-75
2023/05/22 00:11:15;;;;;;;11.30;9.13;;;17.30;99.90;;;;;;6248370;28;20045;-76
2023/05/22 00:14:17;;;;;;;10.82;8.20;;;17.30;99.90;;;;;;6248494;28;20061;-74
2023/05/22 00:17:19;;;;;;;11.77;8.07;;;17.30;99.90;;;;;;6248420;28;20049;-77
2023/05/22 00:20:22;;;;;;;12.32;8.30;;;17.20;99.90;;;;;;6248330;28;20045;-74
2023/05/22 00:23:26;;;;;;;11.80;8.13;;;17.20;99.90;;;;;;6248771;28;20136;-75
2023/05/22 00:26:28;;;;;;;9.98;7.63;;;17.20;99.90;;;;;;6248282;28;20057;-76
2023/05/22 00:29:30;;;;;;;12.27;8.70;;;17.20;99.90;;;;;;6248138;28;20049;-76
2023/05/22 00:32:32;;;;;;;10.82;7.82;;;17.10;99.90;;;;;;6248222;28;20081;-75
2023/05/22 00:35:35;;;;;;;11.95;8.10;;;17.10;99.90;;;;;;6248212;28;20054;-76
2023/05/22 00:38:37;;;;;;;13.13;7.75;;;17.10;99.90;;;;;;6247941;28;20506;-76
2023/05/22 00:41:39;;;;;;;11.18;7.75;;;17.00;99.90;;;;;;6247662;28;20055;-76
2023/05/22 00:44:41;;;;;;;11.75;7.75;;;16.90;99.90;;;;;;6248468;28;20049;-73
2023/05/22 00:47:43;;;;;;;10.77;7.82;;;16.80;99.90;;;;;;6251152;28;20107;-74
2023/05/22 00:50:46;;;;;;;11.13;8.00;;;16.70;99.90;;;;;;6250722;28;20049;-75
2023/05/22 00:53:49;;;;;;;11.80;8.20;;;16.70;99.90;;;;;;6247955;28;20137;-74
2023/05/22 00:56:51;;;;;;;10.55;7.35;;;16.60;99.90;;;;;;6247556;28;20045;-75
2023/05/22 00:59:53;;;;;;;10.48;8.32;;;16.60;99.90;;;;;;6247769;28;20053;-77
2023/05/22 01:02:55;;;;;;;12.90;8.13;;;16.60;99.90;;;;;;6247495;28;20215;-74
2023/05/22 01:06:00;;;;;;;11.73;7.93;;;16.50;99.90;;;;;;6247580;28;20103;-76
2023/05/22 01:09:03;;;;;;;13.43;8.10;;;16.50;99.90;;;;;;6247525;28;20046;-75
2023/05/22 01:12:15;;;;;;;9.80;7.25;;;16.50;99.90;;;;;;6247058;28;20606;-76
2023/05/22 01:15:25;;;;;;;12.05;8.55;;;16.40;99.90;;;;;;6247540;28;20053;-75
2023/05/22 01:18:32;;;;;;;11.27;7.90;;;16.50;99.90;;;;;;6247092;28;20380;-76
2023/05/22 01:21:45;;;;;;;11.70;8.30;;;16.40;99.90;;;;;;6247149;28;20050;-77
2023/05/22 01:25:15;;;;;;;11.88;8.52;;;16.40;99.90;;;;;;6247470;28;20057;-74
2023/05/22 01:28:36;;;;;;;11.32;8.40;;;16.40;99.90;;;;;;6246948;28;20123;-76
2023/05/22 01:31:43;;;;;;;11.60;8.32;;;16.40;99.90;;;;;;6246973;28;20042;-76
2023/05/22 01:34:47;;;;;;;9.95;7.47;;;16.40;99.90;;;;;;6247065;28;20058;-75
2023/05/22 01:37:50;;;;;;;12.20;8.23;;;16.40;99.90;;;;;;6247307;28;20041;-76
2023/05/22 01:40:53;;;;;;;10.95;8.18;;;16.30;99.90;;;;;;6247592;28;20053;-74
2023/05/22 01:43:55;;;;;;;;;;;16.30;99.90;;;;;;6257668;28;20153;-74
2023/05/22 01:47:03;;;;;;;12.90;8.07;;;16.30;99.90;;;;;;6260107;28;19921;-74
2023/05/22 01:50:07;;;;;;;10.85;7.80;;;16.30;99.90;;;;;;6266233;28;20642;-76
2023/05/22 01:53:17;;;;;;;9.93;7.32;;;16.30;99.90;;;;;;6256080;28;20101;-76
2023/05/22 01:56:29;;;;;;;12.30;7.82;;;16.20;99.90;;;;;;6261054;28;20049;-76
2023/05/22 01:59:37;;;;;;;12.32;8.77;;;16.20;99.90;;;;;;6255411;28;20123;-75
2023/05/22 02:02:44;;;;;;;11.38;8.50;;;16.10;99.90;;;;;;6263552;28;20061;-76
2023/05/22 02:05:51;;;;;;;12.23;8.27;;;16.10;99.90;;;;;;6254352;28;20472;-75
2023/05/22 02:08:54;;;;;;;12.02;8.90;;;16.10;99.90;;;;;;6251929;28;20069;-75
2023/05/22 02:11:58;;;;;;;15.13;9.70;;;16.10;99.90;;;;;;6251356;28;20061;-75
2023/05/22 02:15:00;;;;;;;12.90;9.85;;;16.10;99.90;;;;;;6251764;28;20056;-74
2023/05/22 02:18:09;;;;;;;13.00;9.30;;;16.00;99.90;;;;;;6251551;28;20050;-76
2023/05/22 02:21:11;;;;;;;15.07;10.23;;;16.10;99.90;;;;;;6251462;28;20053;-76
2023/05/22 02:24:13;;;;;;;13.07;9.07;;;16.20;99.90;;;;;;6250108;28;20506;-75
2023/05/22 02:27:16;;;;;;;12.02;9.48;;;16.20;99.90;;;;;;6251792;28;20042;-77
2023/05/22 02:30:18;;;;;;;12.67;9.43;;;16.20;99.90;;;;;;6251466;28;20050;-75
2023/05/22 02:33:21;;;;;;;13.52;9.38;;;16.10;99.90;;;;;;6251130;28;20308;-75
2023/05/22 02:36:25;;;;;;;14.60;9.68;;;16.20;99.90;;;;;;6251377;28;20193;-73
2023/05/22 02:39:26;;;;;;;12.32;9.02;;;16.20;99.90;;;;;;6251140;28;20057;-77
2023/05/22 02:42:28;;;;;;;12.27;8.70;;;16.20;99.90;;;;;;6251135;28;20049;-76
2023/05/22 02:45:31;;;;;;;11.98;8.40;;;16.20;99.90;;;;;;6250923;28;20060;-76
2023/05/22 02:48:35;;;;;;;11.93;8.38;;;16.20;99.90;;;;;;6251204;28;20045;-74
2023/05/22 02:51:36;;;;;;;;;;;16.20;99.90;;;;;;6251203;28;20054;-74
2023/05/22 02:54:38;;;;;;;13.52;8.98;;;16.10;99.90;;;;;;6262229;28;19928;-77
2023/05/22 02:57:40;;;;;;;11.55;8.88;;;16.10;99.90;;;;;;6263021;28;20374;-78
2023/05/22 03:00:42;;;;;;;11.60;8.73;;;16.00;99.90;;;;;;6262053;28;20046;-77
2023/05/22 03:03:47;;;;;;;12.75;9.07;;;16.00;99.90;;;;;;6256831;28;20384;-76
2023/05/22 03:06:49;;;;;;;10.93;8.05;;;16.10;99.90;;;;;;6251264;28;20080;-74
2023/05/22 03:09:50;;;;;;;11.82;8.43;;;16.00;99.90;;;;;;6250953;28;20477;-76
2023/05/22 03:12:52;;;;;;;13.98;8.80;;;15.90;99.90;;;;;;6250956;28;20046;-75
2023/05/22 03:15:54;;;;;;;12.18;8.05;;;15.90;99.90;;;;;;6250630;28;20046;-76
2023/05/22 03:19:09;;;;;;;11.68;8.60;;;15.80;99.90;;;;;;6250289;28;20046;-75
2023/05/22 03:22:11;;;;;;;14.50;9.10;;;15.80;99.90;;;;;;6250314;28;20658;-75
2023/05/22 03:25:13;;;;;;;15.30;9.75;;;15.80;99.90;;;;;;6249951;28;20045;-76
2023/05/22 03:28:15;;;;;;;14.65;9.70;;;15.90;99.90;;;;;;6250047;28;20045;-76
2023/05/22 03:31:17;;;;;;;14.00;10.02;;;15.90;99.90;;;;;;6249806;28;20053;-75
2023/05/22 03:34:21;;;;;;;13.05;9.70;;;15.80;99.90;;;;;;6250069;28;20513;-76
2023/05/22 03:37:23;;;;;;;13.88;10.10;;;15.90;99.90;;;;;;6249789;28;20052;-75
2023/05/22 03:40:25;;;;;;;15.95;9.57;;;15.90;99.90;;;;;;6249451;28;20056;-77
2023/05/22 03:43:26;;;;;;;13.65;9.95;;;16.00;99.90;;;;;;6249569;28;20053;-76
2023/05/22 03:46:28;;;;;;;13.93;9.68;;;16.00;99.90;;;;;;6249734;28;20148;-77
2023/05/22 03:49:32;;;;;;;12.23;9.63;;;16.00;99.90;;;;;;6249521;28;20065;-76
2023/05/22 03:52:34;;;;;;;13.48;9.50;;;16.10;99.90;;;;;;6249271;28;20049;-76
2023/05/22 03:55:36;;;;;;;14.35;9.48;;;16.00;99.90;;;;;;6249404;28;20060;-74
2023/05/22 03:58:38;;;;;;;12.23;8.27;;;16.00;99.90;;;;;;6249260;28;20049;-76
2023/05/22 04:01:40;;;;;;;11.73;8.57;;;15.90;99.90;;;;;;6249181;28;20045;-74
2023/05/22 04:04:45;;;;;;;12.73;9.23;;;15.90;99.90;;;;;;6249178;28;20049;-76
2023/05/22 04:07:46;;;;;;;11.82;8.70;;;15.90;99.90;;;;;;6249195;28;20041;-76
2023/05/22 04:10:48;;;;;;;12.30;8.45;;;15.90;99.90;;;;;;6249334;28;20041;-76
2023/05/22 04:13:50;;;;;;;13.45;9.82;;;15.90;99.90;;;;;;6248836;28;20438;-77
2023/05/22 04:16:52;;;;;;;15.48;10.20;;;16.00;99.90;;;;;;6249548;28;20041;-74
2023/05/22 04:19:57;;;;;;;13.73;9.20;;;16.00;99.90;;;;;;6249779;28;20122;-74
2023/05/22 04:22:58;;;;;;;12.68;8.93;;;16.00;99.90;;;;;;6249027;28;20064;-73
2023/05/22 04:26:01;;;;;;;12.60;8.43;;;16.10;99.90;;;;;;6248290;28;20060;-74
2023/05/22 04:29:05;;;;;;;12.23;8.80;;;16.00;99.90;;;;;;6248316;28;20099;-77
2023/05/22 04:32:09;;;;;;;;;;;16.00;99.90;;;;;;6248845;28;20053;-74
2023/05/22 04:35:12;;;;;;;12.65;8.82;;;16.10;99.90;;;;;;6248644;28;19921;-77
2023/05/22 04:38:14;;;;;;;11.57;8.60;;;16.10;99.90;;;;;;6248899;28;20033;-74
2023/05/22 04:41:17;;;;;;;12.73;8.98;;;16.10;99.90;;;;;;6248891;28;20052;-76
2023/05/22 04:44:21;;;;;;;12.77;8.97;;;16.10;99.90;;;;;;6248700;28;20041;-76
2023/05/22 04:47:24;;;;;;;11.40;8.80;;;16.10;99.90;;;;;;6248430;28;20049;-74
2023/05/22 04:50:29;;;;;;;12.05;9.10;;;16.10;99.90;;;;;;6248279;28;20048;-75
2023/05/22 04:53:32;;;;;;;14.68;9.52;;;16.20;99.90;;;;;;6249147;28;20053;-74
2023/05/22 04:56:34;;;;;;;13.43;9.88;;;16.10;99.90;;;;;;6248208;28;20527;-76
2023/05/22 04:59:38;;;;;;;13.07;9.48;;;16.10;99.90;;;;;;6248126;28;20402;-78
2023/05/22 05:02:39;;;;;;;13.85;9.50;;;16.10;99.90;;;;;;6247828;28;20083;-75
2023/05/22 05:05:43;;;;;;;16.65;10.13;;;16.20;99.90;;;;;;6248187;28;20185;-73
2023/05/22 05:08:46;;;;;;;12.60;9.25;;;16.20;99.90;;;;;;6247953;28;20050;-75
2023/05/22 05:11:49;;;;;;;14.70;8.93;;;16.30;99.90;;;;;;6248149;28;20054;-75
2023/05/22 05:14:51;;;;;;;13.33;9.07;;;16.30;99.90;;;;;;6247786;28;20049;-75
2023/05/22 05:17:53;;;;;;;13.15;9.73;;;16.40;99.90;;;;;;6247559;28;20053;-77
2023/05/22 05:20:56;;;;;;;14.52;9.75;;;16.40;99.90;;;;;;6247548;28;20503;-75
2023/05/22 05:23:58;;;;;;;15.23;9.77;;;16.40;99.90;;;;;;6247638;28;20065;-74
2023/05/22 05:26:59;;;;;;;12.90;10.18;;;16.50;99.90;;;;;;6250030;28;20058;-76
2023/05/22 05:30:01;;;;;;;15.30;10.45;;;16.50;99.90;;;;;;6252845;28;20052;-75
2023/05/22 05:33:03;;;;;;;12.75;9.77;;;16.60;99.90;;;;;;6253276;28;20055;-75
2023/05/22 05:36:07;;;;;;;16.58;10.88;;;16.70;99.90;;;;;;6252751;28;20042;-77
2023/05/22 05:39:09;;;;;;;13.63;10.30;;;16.70;99.90;;;;;;6252640;28;20053;-74
2023/05/22 05:42:11;;;;;;;13.55;9.80;;;16.80;99.90;;;;;;6252741;28;20048;-77
2023/05/22 05:45:14;;;;;;;14.90;10.77;;;16.90;99.90;;;;;;6251945;28;20403;-74
2023/05/22 05:48:16;;;;;;;15.10;10.48;;;16.90;99.90;;;;;;6252499;28;20053;-75
2023/05/22 05:51:20;;;;;;;14.93;10.13;;;17.00;99.90;;;;;;6251885;28;20450;-75
2023/05/22 05:54:25;;;;;;;14.35;9.55;;;17.00;99.90;;;;;;6252762;28;20057;-76
2023/05/22 05:57:27;;;;;;;15.15;10.18;;;17.10;99.90;;;;;;6252806;28;20414;-75
2023/05/22 06:00:29;;;;;;;17.15;10.57;;;17.10;99.90;;;;;;6254247;28;20059;-78
2023/05/22 06:03:31;;;;;;;13.82;9.98;;;17.10;99.90;;;;;;6252682;28;20060;-75
2023/05/22 06:06:35;;;;;;;15.40;10.43;;;17.30;99.90;;;;;;6253249;28;20487;-74
2023/05/22 06:09:36;;;;;;;14.63;10.38;;;17.30;99.90;;;;;;6253150;28;20045;-75
2023/05/22 06:12:39;;;;;;;14.10;10.77;;;17.40;99.90;;;;;;6252609;28;20049;-75
2023/05/22 06:15:41;;;;;;;14.45;10.40;;;17.50;99.90;;;;;;6252227;28;20053;-75
2023/05/22 06:18:42;;;;;;;12.98;10.10;;;17.50;99.90;;;;;;6252753;28;20049;-75
2023/05/22 06:21:46;;;;;;;15.65;10.07;;;17.60;99.90;;;;;;6260036;28;20060;-75
2023/05/22 06:24:47;;;;;;;13.68;10.57;;;17.70;99.90;;;;;;6264071;28;20079;-76
2023/05/22 06:27:49;;;;;;;16.30;10.52;;;17.80;99.90;;;;;;6270960;28;20049;-76
2023/05/22 06:30:51;;;;;;;13.57;10.25;;;17.90;99.90;;;;;;6257767;28;20814;-75
2023/05/22 06:33:53;;;;;;;17.13;11.00;;;17.90;99.90;;;;;;6252947;28;20052;-77
2023/05/22 06:36:56;;;;;;;17.30;10.82;;;18.00;99.90;;;;;;6253704;28;20513;-76
2023/05/22 06:39:58;;;;;;;15.73;11.43;;;18.00;99.90;;;;;;6250185;28;20483;-74
2023/05/22 06:43:00;;;;;;;15.65;11.02;;;18.10;99.90;;;;;;6265367;28;20049;-74
2023/05/22 06:46:02;;;;;;;15.40;10.75;;;18.10;99.90;;;;;;6272239;28;20053;-75
2023/05/22 06:49:04;;;;;;;17.27;10.63;;;18.20;99.90;;;;;;6271722;28;20049;-77
2023/05/22 06:52:08;;;;;;;15.48;10.85;;;18.30;99.90;;;;;;6274700;28;20050;-75
2023/05/22 06:55:10;;;;;;;13.73;10.60;;;18.40;99.90;;;;;;6274517;28;20053;-76
2023/05/22 06:58:12;;;;;;;14.90;10.48;;;18.50;99.90;;;;;;6272387;28;20402;-76
2023/05/22 07:01:14;;;;;;;16.70;11.23;;;18.60;99.90;;;;;;6254162;28;20071;-75
2023/05/22 07:04:16;;;;;;;15.15;11.15;;;18.70;99.90;;;;;;6250386;28;20045;-77
2023/05/22 07:07:19;;;;;;;16.60;11.00;;;18.80;99.90;;;;;;6250039;28;20083;-75
2023/05/22 07:10:21;;;;;;;14.77;11.27;;;18.90;99.90;;;;;;6249907;28;20483;-74
2023/05/22 07:13:23;;;;;;;13.90;10.73;;;18.90;99.90;;;;;;6250016;28;20046;-77
2023/05/22 07:16:25;;;;;;;15.82;11.25;;;19.10;99.90;;;;;;6249642;28;20136;-76
2023/05/22 07:19:27;;;;;;;16.48;11.77;;;19.10;99.90;;;;;;6249803;28;20045;-76
2023/05/22 07:22:30;;;;;;;16.02;11.88;;;19.10;99.90;;;;;;6249181;28;20049;-76
2023/05/22 07:25:32;;;;;;;14.77;11.25;;;19.20;99.90;;;;;;6249648;28;20041;-77
2023/05/22 07:28:34;;;;;;;15.40;11.68;;;19.30;99.90;;;;;;6249311;28;20052;-75
2023/05/22 07:31:37;;;;;;;16.38;12.00;;;19.30;99.90;;;;;;6249564;28;20050;-76
2023/05/22 07:34:39;;;;;;;19.95;14.32;;;19.40;99.90;;;;;;6249178;28;20050;-76
2023/05/22 07:37:42;;;;;;;17.20;12.32;;;19.50;99.90;;;;;;6249319;28;20491;-75
2023/05/22 07:40:44;;;;;;;14.70;11.27;;;19.60;99.90;;;;;;6249209;28;20046;-76
2023/05/22 07:43:46;;;;;;;16.48;11.88;;;19.70;99.90;;;;;;6249353;28;20061;-78
2023/05/22 07:46:48;;;;;;;17.73;12.20;;;19.80;99.90;;;;;;6248848;28;20056;-77
2023/05/22 07:49:50;;;;;;;17.55;12.20;;;19.90;99.90;;;;;;6248400;28;20049;-76
2023/05/22 07:52:53;;;;;;;15.77;11.77;;;20.00;99.90;;;;;;6249073;28;20068;-75
2023/05/22 07:55:55;;;;;;;16.00;11.43;;;20.10;99.90;;;;;;6248641;28;20050;-76
2023/05/22 07:58:56;;;;;;;16.80;12.32;;;20.10;99.90;;;;;;6250492;28;20049;-75
2023/05/22 08:01:58;;;;;;;15.88;11.90;;;20.20;99.90;;;;;;6259633;28;20042;-74
2023/05/22 08:05:00;;;;;;;14.98;10.75;;;20.20;99.90;;;;;;6259848;28;20060;-74
2023/05/22 08:08:04;;;;;;;15.82;12.02;;;20.30;99.90;;;;;;6256387;28;20064;-74
2023/05/22 08:11:06;;;;;;;14.82;12.20;;;20.40;99.90;;;;;;6251093;28;20049;-75
2023/05/22 08:14:08;;;;;;;17.08;12.25;;;20.40;99.90;;;;;;6248348;28;20068;-74
2023/05/22 08:17:10;;;;;;;17.67;12.30;;;20.40;99.90;;;;;;6248226;28;20049;-78
2023/05/22 08:20:12;;;;;;;18.55;12.52;;;20.50;99.90;;;;;;6246173;28;20396;-76
2023/05/22 08:23:15;;;;;;;14.27;12.00;;;20.50;99.90;;;;;;6223428;28;20046;-75
2023/05/22 08:26:17;;;;;;;15.82;12.20;;;20.40;99.90;;;;;;6223406;28;20735;-76
2023/05/22 08:29:19;;;;;;;15.57;12.20;;;20.40;99.90;;;;;;6223379;28;20049;-75
2023/05/22 08:32:21;;;;;;;15.55;12.07;;;20.40;99.90;;;;;;6235315;28;20042;-75
2023/05/22 08:35:23;;;;;;;17.73;12.27;;;20.40;99.90;;;;;;6250356;28;20056;-75
2023/05/22 08:38:26;;;;;;;16.60;12.68;;;20.50;99.90;;;;;;6244580;28;20054;-74
2023/05/22 08:41:28;;;;;;;16.38;12.32;;;20.50;99.90;;;;;;6238930;28;20067;-74
2023/05/22 08:44:30;;;;;;;17.80;13.15;;;20.60;99.90;;;;;;6223529;28;20046;-74
2023/05/22 08:47:35;;;;;;;15.70;12.20;;;20.60;99.90;;;;;;6223493;28;20050;-76
2023/05/22 08:50:42;;;;;;;17.25;13.00;;;20.70;99.90;;;;;;6223548;28;20041;-74
2023/05/22 08:53:49;;;;;;;14.93;11.95;;;20.70;99.90;;;;;;6223320;28;20213;-75
2023/05/22 08:56:53;;;;;;;16.40;12.63;;;20.90;99.90;;;;;;6223305;28;20052;-76
2023/05/22 08:59:55;;;;;;;16.33;11.73;;;20.90;99.50;;;;;;6224217;28;20046;-76
2023/05/22 09:02:57;;;;;;;17.17;12.88;;;21.00;99.70;;;;;;6228047;28;20085;-74
2023/05/22 09:06:00;;;;;;;15.63;12.90;;;21.00;98.90;;;;;;6222946;28;20054;-75
2023/05/22 09:09:03;;;;;;;16.88;12.63;;;21.10;98.50;;;;;;6222901;28;20591;-76
2023/05/22 09:12:09;;;;;;;18.00;12.43;;;21.20;98.60;;;;;;6222702;28;20041;-75
2023/05/22 09:15:12;;;;;;;16.35;12.48;;;21.20;98.90;;;;;;6222832;28;20142;-77
2023/05/22 09:18:14;;;;;;;15.88;12.40;;;21.20;98.70;;;;;;6223046;28;20057;-77
2023/05/22 09:21:18;;;;;;;17.55;12.52;;;21.30;98.50;;;;;;6233075;28;20060;-79
2023/05/22 09:24:21;;;;;;;16.85;11.75;;;21.40;98.70;;;;;;6247242;28;20076;-76
2023/05/22 09:27:23;;;;;;;16.60;11.77;;;21.40;99.00;;;;;;6247031;28;20411;-77
2023/05/22 09:30:25;;;;;;;16.48;12.02;;;21.50;98.90;;;;;;6246974;28;20072;-76
2023/05/22 09:33:27;;;;;;;16.90;12.07;;;21.60;99.00;;;;;;6246993;28;20056;-76
2023/05/22 09:36:33;;;;;;;15.98;12.48;;;21.60;99.00;;;;;;6247226;28;20049;-77
2023/05/22 09:39:44;;;;;;;15.38;11.98;;;21.70;98.50;;;;;;6247004;28;20045;-76
2023/05/22 09:42:46;;;;;;;14.25;11.63;;;21.70;97.60;;;;;;6247269;28;20143;-76
2023/05/22 09:45:48;;;;;;;15.52;11.45;;;21.70;97.50;;;;;;6247258;28;20060;-76
2023/05/22 09:48:54;;;;;;;15.15;11.52;;;21.70;97.20;;;;;;6246718;28;20520;-76
2023/05/22 09:51:57;;;;;;;15.02;11.25;;;21.70;97.00;;;;;;6247140;28;20068;-77
2023/05/22 09:55:03;;;;;;;18.55;12.55;;;21.80;98.10;;;;;;6246838;28;20061;-75
2023/05/22 09:58:08;;;;;;;15.68;10.93;;;21.80;98.00;;;;;;6247225;28;20126;-76
2023/05/22 10:01:12;;;;;;;17.65;11.90;;;21.90;98.20;;;;;;6246526;28;20403;-77
2023/05/22 10:04:18;;;;;;;14.48;12.07;;;22.00;98.30;;;;;;6247145;28;20057;-75
2023/05/22 10:07:22;;;;;;;14.88;12.18;;;22.10;98.30;;;;;;6246689;28;20062;-74
2023/05/22 10:10:26;;;;;;;18.15;13.27;;;22.10;98.30;;;;;;6246604;28;20415;-77
2023/05/22 10:13:28;;;;;;;17.80;12.73;;;22.20;97.60;;;;;;6249013;28;20124;-78
2023/05/22 10:16:30;;;;;;;18.55;12.10;;;22.30;98.00;;;;;;6251117;28;20520;-76
2023/05/22 10:19:33;;;;;;;16.05;12.38;;;22.30;98.20;;;;;;6251222;28;20049;-75
2023/05/22 10:22:36;;;;;;;20.30;12.98;;;22.40;98.00;;;;;;6251942;28;20061;-75
2023/05/22 10:25:40;;;;;;;17.95;13.25;;;22.40;98.20;;;;;;6251205;28;20049;-76
2023/05/22 10:28:48;;;;;;;16.55;12.63;;;22.40;97.20;;;;;;6250791;28;20049;-76
2023/05/22 10:32:00;;;;;;;16.65;13.50;;;22.50;97.70;;;;;;6250981;28;20045;-77
2023/05/22 10:35:13;;;;;;;16.40;13.02;;;22.50;97.60;;;;;;6251014;28;20411;-76
2023/05/22 10:38:47;;;;;;;17.52;12.20;;;22.70;98.00;;;;;;6250572;28;20487;-76
2023/05/22 10:41:50;;;;;;;16.10;12.15;;;22.70;97.60;;;;;;6250923;28;20123;-75
2023/05/22 10:44:53;;;;;;;;;;;22.80;97.30;;;;;;6250917;28;20052;-77
2023/05/22 10:48:07;;;;;;;17.88;12.38;;;22.80;97.10;;;;;;6250741;28;19927;-75
2023/05/22 10:51:09;;;;;;;16.27;12.20;;;22.90;96.60;;;;;;6251770;28;20042;-77
2023/05/22 10:54:11;;;;;;;16.08;11.68;;;22.90;96.30;;;;;;6252121;28;20132;-77
2023/05/22 10:57:19;;;;;;;17.95;12.02;;;23.00;96.80;;;;;;6252754;28;20049;-80
2023/05/22 11:00:24;;;;;;;15.35;11.43;;;23.10;97.10;;;;;;6261674;28;20053;-78
2023/05/22 11:03:27;;;;;;;15.18;10.93;;;23.10;95.40;;;;;;6263770;28;20463;-77
2023/05/22 11:06:35;;;;;;;18.13;12.15;;;23.20;96.00;;;;;;6261096;28;20041;-78
2023/05/22 11:09:41;;;;;;;12.90;10.65;;;23.20;94.90;;;;;;6262120;28;20053;-75
2023/05/22 11:12:45;;;;;;;14.68;11.38;;;23.30;95.20;;;;;;6250944;28;20049;-77
2023/05/22 11:15:47;;;;;;;;;;;23.40;95.40;;;;;;6250254;28;20399;-77
2023/05/22 11:18:48;;;;;;;14.60;11.18;;;23.50;95.60;;;;;;6249898;28;19932;-78
2023/05/22 11:21:50;;;;;;;15.10;11.40;;;23.60;94.70;;;;;;6249579;28;20057;-77
2023/05/22 11:24:54;;;;;;;15.60;11.13;;;23.60;93.90;;;;;;6249220;28;20475;-77
2023/05/22 11:28:00;;;;;;;12.57;9.43;;;23.60;94.00;;;;;;6249515;28;20491;-77
2023/05/22 11:31:02;;;;;;;13.52;10.38;;;23.60;92.50;;;;;;6249738;28;20049;-76
2023/05/22 11:34:04;;;;;;;14.27;10.65;;;23.70;92.10;;;;;;6249772;28;20045;-77
2023/05/22 11:37:06;;;;;;;14.23;10.20;;;23.70;91.70;;;;;;6249198;28;20083;-78
2023/05/22 11:40:10;;;;;;;14.00;9.27;;;23.80;90.60;;;;;;6249552;28;20132;-77
2023/05/22 11:43:13;;;;;;;;;;;24.00;92.80;;;;;;6249520;28;20050;-77
2023/05/22 11:46:15;;;;;;;14.35;9.98;;;24.20;93.20;;;;;;6249598;28;19932;-78
2023/05/22 11:49:20;;;;;;;15.88;11.10;;;24.40;93.90;;;;;;6249039;28;20051;-78
2023/05/22 11:52:22;;;;;;;16.30;11.32;;;24.50;93.20;;;;;;6248969;28;20042;-76
2023/05/22 11:55:24;;;;;;;14.38;11.18;;;24.60;93.50;;;;;;6249092;28;20304;-78
2023/05/22 11:58:29;;;;;;;16.35;10.55;;;24.70;92.00;;;;;;6248772;28;20414;-77
2023/05/22 12:01:32;;;;;;;13.43;10.40;;;24.70;91.40;;;;;;6248743;28;20057;-75
2023/05/22 12:04:34;;;;;;;14.25;10.00;;;24.90;91.40;;;;;;6248616;28;20049;-77
2023/05/22 12:07:36;;;;;;;13.57;10.15;;;25.00;91.50;;;;;;6248502;28;20057;-78
2023/05/22 12:10:37;;;;;;;14.77;10.63;;;25.20;91.60;;;;;;6248611;28;20050;-78
2023/05/22 12:13:41;;;;;;;14.52;9.98;;;25.30;91.10;;;;;;6248572;28;20049;-78
2023/05/22 12:16:43;;;;;;;13.40;9.65;;;25.40;90.10;;;;;;6248275;28;20053;-77
2023/05/22 12:19:46;;;;;;;13.20;9.05;;;25.50;88.80;;;;;;6248334;28;20510;-80
2023/05/22 12:22:49;;;;;;;13.18;9.25;;;25.60;86.80;;;;;;6247970;28;20518;-77
2023/05/22 12:25:59;;;;;;;12.52;9.32;;;25.80;87.90;;;;;;6248038;28;20107;-76
2023/05/22 12:29:03;;;;;;;12.32;9.10;;;26.00;86.10;;;;;;6247862;28;20057;-76
2023/05/22 12:32:09;;;;;;;11.25;8.73;;;26.00;83.10;;;;;;6248159;28;20052;-76
2023/05/22 12:35:15;;;;;;;11.02;8.30;;;26.30;83.00;;;;;;6248120;28;20514;-78
2023/05/22 12:38:20;;;;;;;10.98;8.48;;;26.50;81.40;;;;;;6247942;28;20060;-77
2023/05/22 12:41:22;;;;;;;11.27;8.48;;;26.50;81.90;;;;;;6249021;28;20056;-77
2023/05/22 12:44:26;;;;;;;12.52;8.93;;;26.70;81.60;;;;;;6248344;28;20052;-77
2023/05/22 12:47:28;;;;;;;13.60;8.68;;;26.80;79.60;;;;;;6247634;28;20041;-77
2023/05/22 12:50:30;;;;;;;11.35;8.52;;;26.90;74.50;;;;;;6247726;28;20049;-78
2023/05/22 12:53:32;;;;;;;10.40;8.40;;;27.00;77.10;;;;;;6247749;28;20081;-78
2023/05/22 12:56:34;;;;;;;12.65;8.75;;;27.20;75.70;;;;;;6247661;28;20187;-77
2023/05/22 12:59:37;;;;;;;11.02;8.52;;;27.40;78.00;;;;;;6247708;28;20057;-78
2023/05/22 13:02:39;;;;;;;13.23;8.60;;;27.60;77.20;;;;;;6247483;28;20430;-77
2023/05/22 13:05:41;;;;;;;13.13;8.77;;;27.70;76.20;;;;;;6247430;28;20046;-77
2023/05/22 13:08:43;;;;;;;9.80;8.57;;;27.80;72.20;;;;;;6247518;28;20049;-79
2023/05/22 13:11:45;;;;;;;12.25;8.15;;;27.90;70.50;;;;;;6247429;28;20515;-79
2023/05/22 13:14:48;;;;;;;12.82;8.50;;;28.10;70.00;;;;;;6247455;28;20045;-78
2023/05/22 13:17:50;;;;;;;13.27;8.93;;;28.20;71.60;;;;;;6247217;28;20372;-78
2023/05/22 13:20:52;;;;;;;14.38;8.38;;;28.30;72.30;;;;;;6246954;28;20049;-78
2023/05/22 13:23:54;;;;;;;11.90;8.60;;;28.30;72.10;;;;;;6247400;28;20080;-76
2023/05/22 13:26:56;;;;;;;9.48;8.30;;;28.20;71.80;;;;;;6246961;28;20049;-77
2023/05/22 13:29:59;;;;;;;11.10;8.52;;;28.40;72.00;;;;;;6247237;28;20081;-76
2023/05/22 13:33:01;;;;;;;12.50;8.65;;;28.60;70.60;;;;;;6247169;28;20049;-78
2023/05/22 13:36:03;;;;;;;11.43;8.68;;;28.60;70.40;;;;;;6248927;28;20045;-77
2023/05/22 13:39:05;;;;;;;11.32;7.70;;;28.70;70.60;;;;;;6251198;28;20045;-81
2023/05/22 13:42:08;;;;;;;12.48;8.43;;;28.90;69.40;;;;;;6246992;28;20060;-79
2023/05/22 13:45:11;;;;;;;;;;;28.90;71.20;;;;;;6247415;28;20060;-76
2023/05/22 13:48:13;;;;;;;12.13;10.07;;;29.10;68.50;;;;;;6248951;28;19921;-77
2023/05/22 13:51:15;;;;;;;12.98;7.88;;;29.20;64.50;;;;;;6251796;28;20535;-77
2023/05/22 13:54:17;;;;;;;12.53;7.77;;;28.90;66.40;;;;;;6251568;28;20088;-77
2023/05/22 13:57:19;;;;;;;10.43;7.80;;;28.50;67.00;;;;;;6252105;28;20046;-78
2023/05/22 14:00:23;;;;;;;9.85;7.20;;;28.60;64.40;;;;;;6251543;28;20045;-79
2023/05/22 14:03:24;;;;;;;8.93;7.25;;;28.60;65.80;;;;;;6251631;28;20080;-78
2023/05/22 14:06:26;;;;;;;10.52;7.20;;;28.60;64.70;;;;;;6251392;28;20053;-77
2023/05/22 14:09:29;;;;;;;8.90;6.93;;;28.40;65.60;;;;;;6251428;28;20487;-77
2023/05/22 14:12:31;;;;;;;8.80;7.22;;;28.20;66.30;;;;;;6251274;28;20056;-76
2023/05/22 14:15:35;;;;;;;8.50;6.93;;;27.80;64.80;;;;;;6251436;28;20051;-78
2023/05/22 14:18:36;;;;;;;10.05;7.28;;;27.60;66.20;;;;;;6251558;28;20514;-78
2023/05/22 14:21:38;;;;;;;16.10;6.72;;;27.20;70.60;;;;;;6250911;28;20060;-79
2023/05/22 14:24:40;;;;;;;9.27;6.40;;;26.30;71.50;;;;;;6250977;28;20045;-78
2023/05/22 14:27:42;;;;;;;15.63;6.30;;;25.60;72.80;;;;;;6250753;28;20421;-78
2023/05/22 14:30:45;;;;;;;8.07;6.07;;;25.30;72.80;;;;;;6250943;28;20479;-77
2023/05/22 14:33:47;;;;;;;8.85;5.88;;;25.00;73.40;;;;;;6250672;28;20049;-75
2023/05/22 14:36:49;;;;;;;7.53;5.20;;;25.00;72.90;;;;;;6250684;28;20499;-78
2023/05/22 14:39:51;;;;;;;8.38;5.75;;;24.80;70.40;;;;;;6250635;28;20053;-76
2023/05/22 14:42:53;;;;;;;10.88;6.10;;;24.60;72.60;;;;;;6250860;28;20508;-77
2023/05/22 14:45:56;;;;;;;10.25;6.47;;;24.40;75.10;;;;;;6250628;28;20056;-78
2023/05/22 14:48:58;;;;;;;8.90;6.80;;;24.40;75.30;;;;;;6250511;28;20519;-76
2023/05/22 14:52:01;;;;;;;10.88;7.18;;;24.20;76.80;;;;;;6252044;28;20049;-76
2023/05/22 14:55:03;;;;;;;11.60;7.40;;;24.10;78.40;;;;;;6251652;28;20050;-75
2023/05/22 14:58:05;;;;;;;10.23;7.57;;;24.10;80.10;;;;;;6250625;28;20042;-75
2023/05/22 15:01:08;;;;;;;10.27;6.97;;;24.00;81.20;;;;;;6249372;28;20052;-74
2023/05/22 15:04:10;;;;;;;;;;;23.90;82.60;;;;;;6250861;28;20049;-75
2023/05/22 15:07:12;;;;;;;9.85;7.57;;;23.80;84.00;;;;;;6250608;28;19921;-78
2023/05/22 15:10:14;;;;;;;11.35;7.65;;;23.60;85.80;;;;;;6250493;28;20049;-76
2023/05/22 15:13:16;;;;;;;10.88;8.55;;;23.60;87.40;;;;;;6249832;28;20051;-77
2023/05/22 15:16:19;;;;;;;10.13;7.45;;;23.50;86.70;;;;;;6250101;28;20501;-75
2023/05/22 15:19:21;;;;;;;;;;;23.60;83.10;;;;;;6250006;28;20394;-78
2023/05/22 15:22:23;;;;;;;13.17;6.47;;;23.60;80.10;;;;;;6249614;28;19931;-77
2023/05/22 15:25:24;;;;;;;11.65;6.15;;;23.30;78.60;;;;;;6249792;28;20095;-77
2023/05/22 15:28:26;;;;;;;9.18;5.93;;;22.90;78.90;;;;;;6249625;28;20057;-77
2023/05/22 15:31:30;;;;;;;9.18;6.03;;;22.90;79.40;;;;;;6249545;28;20049;-77
2023/05/22 15:34:32;;;;;;;16.35;6.72;;;22.90;80.40;;;;;;6249788;28;20163;-78
2023/05/22 15:37:35;;;;;;;8.55;5.95;;;22.90;81.70;;;;;;6249230;28;20407;-78
2023/05/22 15:40:37;;;;;;;11.20;6.07;;;22.90;82.20;;;;;;6249227;28;20506;-78